createdAt,value
2023-02-09T00:01:02.655Z,32.60
2023-02-09T00:03:30.245Z,36.40
2023-02-09T00:06:00.413Z,35.30
2023-02-09T00:08:28.014Z,31.43
2023-02-09T00:10:55.500Z,52.87
2023-02-09T00:13:23.355Z,35.50
2023-02-09T00:15:51.960Z,44.70
2023-02-09T00:18:19.640Z,37.63
2023-02-09T00:20:54.864Z,38.30
2023-02-09T00:23:22.840Z,32.93
2023-02-09T00:25:50.221Z,32.67
2023-02-09T00:28:17.607Z,31.97
2023-02-09T00:30:45.328Z,35.43
2023-02-09T00:33:13.214Z,32.30
2023-02-09T00:35:41.258Z,32.67
2023-02-09T00:38:09.160Z,28.60
2023-02-09T00:40:37.957Z,37.20
2023-02-09T00:43:05.786Z,25.13
2023-02-09T00:45:33.450Z,37.20
2023-02-09T00:48:01.162Z,27.63
2023-02-09T00:50:29.440Z,41.13
2023-02-09T00:52:56.748Z,23.37
2023-02-09T00:55:24.483Z,27.70
2023-02-09T00:57:52.475Z,26.73
2023-02-09T01:00:20.744Z,27.03
2023-02-09T01:02:48.160Z,28.23
2023-02-09T01:05:15.448Z,51.27
2023-02-09T01:07:42.747Z,29.53
2023-02-09T01:10:10.853Z,36.73
2023-02-09T01:12:40.308Z,34.20
2023-02-09T01:15:10.205Z,46.23
2023-02-09T01:17:37.689Z,49.07
2023-02-09T01:20:06.913Z,38.80
2023-02-09T01:22:35.513Z,39.50
2023-02-09T01:25:02.879Z,35.23
2023-02-09T01:27:30.178Z,30.60
2023-02-09T01:29:57.780Z,30.40
2023-02-09T01:32:25.753Z,31.53
2023-02-09T01:34:53.305Z,45.40
2023-02-09T01:37:21.003Z,47.07
2023-02-09T01:39:48.677Z,22.90
2023-02-09T01:42:16.575Z,34.63
2023-02-09T01:45:07.036Z,29.57
2023-02-09T01:47:41.076Z,22.20
2023-02-09T01:50:08.949Z,25.60
2023-02-09T01:52:36.437Z,20.43
2023-02-09T01:55:07.355Z,23.00
2023-02-09T01:57:37.919Z,21.73
2023-02-09T02:00:09.545Z,20.73
2023-02-09T02:02:38.005Z,38.30
2023-02-09T02:05:07.729Z,16.77
2023-02-09T02:07:41.636Z,28.70
2023-02-09T02:10:09.296Z,35.27
2023-02-09T02:12:37.679Z,31.37
2023-02-09T02:15:05.735Z,40.10
2023-02-09T02:17:51.863Z,35.90
2023-02-09T02:20:50.813Z,28.30
2023-02-09T02:23:26.946Z,33.60
2023-02-09T02:26:29.069Z,28.00
2023-02-09T02:29:22.967Z,34.07
2023-02-09T02:32:24.792Z,39.53
2023-02-09T02:34:58.982Z,19.20
2023-02-09T02:37:37.886Z,26.73
2023-02-09T02:40:14.314Z,40.37
2023-02-09T02:42:52.109Z,32.63
2023-02-09T02:45:41.068Z,33.37
2023-02-09T02:48:20.430Z,34.37
2023-02-09T02:50:53.995Z,39.43
2023-02-09T02:53:24.710Z,29.47
2023-02-09T02:55:54.939Z,38.73
2023-02-09T02:58:23.585Z,72.67
2023-02-09T03:00:53.621Z,27.70
2023-02-09T03:03:24.714Z,4.10
2023-02-09T03:05:53.184Z,25.37
2023-02-09T03:08:20.533Z,39.23
2023-02-09T03:10:48.217Z,21.53
2023-02-09T03:13:38.245Z,33.13
2023-02-09T03:16:24.406Z,34.97
2023-02-09T03:19:04.127Z,38.90
2023-02-09T03:21:41.960Z,21.93
2023-02-09T03:24:16.896Z,29.40
2023-02-09T03:26:49.405Z,17.53
2023-02-09T03:29:18.843Z,31.73
2023-02-09T03:31:48.228Z,24.80
2023-02-09T03:34:16.646Z,22.17
2023-02-09T03:36:49.108Z,23.90
2023-02-09T03:39:16.463Z,19.87
2023-02-09T03:41:43.765Z,24.10
2023-02-09T03:44:26.693Z,18.60
2023-02-09T03:46:55.071Z,25.17
2023-02-09T03:49:23.605Z,22.63
2023-02-09T03:51:51.098Z,26.23
2023-02-09T03:54:18.393Z,50.33
2023-02-09T03:56:45.783Z,85.50
2023-02-09T03:59:13.036Z,217.60
2023-02-09T04:01:40.366Z,159.03
2023-02-09T04:04:08.026Z,93.83
2023-02-09T04:06:36.224Z,28.00
2023-02-09T04:09:05.069Z,28.03
2023-02-09T04:11:32.893Z,44.03
2023-02-09T04:14:00.156Z,35.80
2023-02-09T04:16:27.666Z,50.87
2023-02-09T04:18:54.998Z,38.37
2023-02-09T04:21:22.305Z,45.63
2023-02-09T04:23:50.183Z,45.63
2023-02-09T04:26:17.799Z,45.97
2023-02-09T04:28:45.305Z,51.77
2023-02-09T04:31:12.845Z,49.67
2023-02-09T04:33:40.284Z,46.20
2023-02-09T04:36:09.137Z,47.13
2023-02-09T04:38:36.571Z,36.10
2023-02-09T04:41:05.260Z,43.50
2023-02-09T04:43:33.245Z,35.40
2023-02-09T04:46:00.757Z,22.43
2023-02-09T04:48:29.700Z,27.37
2023-02-09T04:50:57.758Z,36.40
2023-02-09T04:53:25.027Z,36.60
2023-02-09T04:55:52.935Z,37.83
2023-02-09T04:58:39.619Z,38.30
2023-02-09T05:01:07.536Z,41.77
2023-02-09T05:03:35.201Z,47.77
2023-02-09T05:06:04.614Z,43.43
2023-02-09T05:08:32.429Z,36.70
2023-02-09T05:10:59.684Z,23.63
2023-02-09T05:13:27.841Z,19.80
2023-02-09T05:15:55.348Z,24.20
2023-02-09T05:18:23.765Z,28.77
2023-02-09T05:20:52.076Z,31.77
2023-02-09T05:23:19.336Z,7.53
2023-02-09T05:25:47.647Z,18.30
2023-02-09T05:28:15.358Z,22.17
2023-02-09T05:30:43.372Z,15.60
2023-02-09T05:33:10.736Z,25.47
2023-02-09T05:35:37.971Z,34.20
2023-02-09T05:38:05.325Z,40.50
2023-02-09T05:40:32.608Z,25.30
2023-02-09T05:43:01.716Z,35.33
2023-02-09T05:45:28.947Z,32.97
2023-02-09T05:47:56.955Z,79.63
2023-02-09T05:50:24.207Z,45.17
2023-02-09T05:52:51.441Z,45.30
2023-02-09T05:55:18.822Z,43.13
2023-02-09T05:57:46.114Z,44.60
2023-02-09T06:00:14.650Z,94.43
2023-02-09T06:02:42.014Z,49.37
2023-02-09T06:05:10.092Z,52.47
2023-02-09T06:07:37.396Z,51.13
2023-02-09T06:10:05.001Z,41.63
2023-02-09T06:12:32.277Z,38.03
2023-02-09T06:14:59.582Z,36.00
2023-02-09T06:17:26.822Z,40.47
2023-02-09T06:19:54.096Z,40.53
2023-02-09T06:22:22.007Z,55.20
2023-02-09T06:24:49.281Z,35.87
2023-02-09T06:27:16.536Z,40.80
2023-02-09T06:29:43.885Z,40.47
2023-02-09T06:32:11.294Z,124.30
2023-02-09T06:34:38.625Z,44.87
2023-02-09T06:37:05.860Z,20.70
2023-02-09T06:39:33.767Z,31.33
2023-02-09T06:42:01.091Z,35.07
2023-02-09T06:44:28.479Z,38.47
2023-02-09T06:46:55.686Z,31.87
2023-02-09T06:49:24.576Z,39.93
2023-02-09T06:51:51.955Z,60.03
2023-02-09T06:54:20.056Z,103.77
2023-02-09T06:56:48.088Z,118.13
2023-02-09T06:59:15.348Z,127.03
2023-02-09T07:01:42.705Z,44.70
2023-02-09T07:04:10.019Z,59.20
2023-02-09T07:06:37.272Z,66.60
2023-02-09T07:09:04.641Z,93.60
2023-02-09T07:11:31.896Z,68.40
2023-02-09T07:13:59.895Z,84.00
2023-02-09T07:16:27.263Z,40.47
2023-02-09T07:18:54.528Z,32.43
2023-02-09T07:21:21.992Z,30.67
2023-02-09T07:23:49.397Z,36.63
2023-02-09T07:26:18.132Z,34.77
2023-02-09T07:28:45.567Z,30.60
2023-02-09T07:31:15.687Z,38.20
2023-02-09T07:33:42.960Z,31.67
2023-02-09T07:36:12.294Z,42.30
2023-02-09T07:38:40.262Z,50.03
2023-02-09T07:41:12.511Z,49.20
2023-02-09T07:43:39.742Z,56.83
2023-02-09T07:46:08.387Z,44.47
2023-02-09T07:48:36.817Z,46.40
2023-02-09T07:51:04.596Z,52.20
2023-02-09T07:53:32.824Z,56.27
2023-02-09T07:56:00.134Z,73.40
2023-02-09T07:58:27.492Z,64.73
2023-02-09T08:00:54.733Z,56.47
2023-02-09T08:03:23.666Z,52.07
2023-02-09T08:05:59.535Z,52.70
2023-02-09T08:08:26.837Z,58.00
2023-02-09T08:10:56.249Z,54.70
2023-02-09T08:13:25.050Z,51.97
2023-02-09T08:15:55.294Z,68.40
2023-02-09T08:18:24.686Z,53.60
2023-02-09T08:20:53.137Z,64.20
2023-02-09T08:23:23.392Z,67.00
2023-02-09T08:25:51.191Z,63.10
2023-02-09T08:28:19.166Z,55.30
2023-02-09T08:30:47.432Z,66.00
2023-02-09T08:33:14.862Z,59.60
2023-02-09T08:35:42.177Z,57.50
2023-02-09T08:38:10.138Z,46.27
2023-02-09T08:40:40.638Z,48.97
2023-02-09T08:43:08.136Z,50.27
2023-02-09T08:45:36.823Z,64.03
2023-02-09T08:48:05.994Z,66.80
2023-02-09T08:50:33.339Z,52.30
2023-02-09T08:53:02.201Z,46.03
2023-02-09T08:55:30.344Z,37.83
2023-02-09T08:57:57.658Z,41.10
2023-02-09T09:00:25.091Z,43.27
2023-02-09T09:02:52.321Z,38.40
2023-02-09T09:05:19.552Z,42.33
2023-02-09T09:07:47.460Z,40.23
2023-02-09T09:10:14.822Z,25.57
2023-02-09T09:12:42.791Z,49.90
2023-02-09T09:15:10.449Z,38.57
2023-02-09T09:17:37.700Z,37.93
2023-02-09T09:20:06.196Z,33.87
2023-02-09T09:22:33.619Z,32.67
2023-02-09T09:25:00.901Z,31.03
2023-02-09T09:27:28.235Z,35.77
2023-02-09T09:29:56.165Z,37.33
2023-02-09T09:32:24.110Z,34.27
2023-02-09T09:34:53.506Z,40.03
2023-02-09T09:37:21.028Z,34.97
2023-02-09T09:39:48.531Z,36.03
2023-02-09T09:42:23.772Z,35.13
2023-02-09T09:44:51.634Z,30.83
2023-02-09T09:47:25.931Z,35.57
2023-02-09T09:49:53.185Z,33.47
2023-02-09T09:52:28.119Z,28.83
2023-02-09T09:54:55.403Z,29.53
2023-02-09T09:57:27.042Z,54.10
2023-02-09T09:59:55.863Z,33.37
2023-02-09T10:02:28.748Z,30.63
2023-02-09T10:05:09.998Z,31.57
2023-02-09T10:07:39.951Z,26.10
2023-02-09T10:10:17.580Z,33.07
2023-02-09T10:12:48.234Z,31.23
2023-02-09T10:15:27.136Z,29.67
2023-02-09T10:17:55.501Z,32.20
2023-02-09T10:20:47.966Z,23.20
2023-02-09T10:23:23.901Z,24.40
2023-02-09T10:25:58.367Z,30.07
2023-02-09T10:28:27.568Z,24.97
2023-02-09T10:30:59.333Z,25.57
2023-02-09T10:33:29.209Z,25.03
2023-02-09T10:36:00.321Z,21.20
2023-02-09T10:38:33.379Z,24.57
2023-02-09T10:41:01.555Z,27.67
2023-02-09T10:43:31.896Z,28.70
2023-02-09T10:46:00.811Z,26.37
2023-02-09T10:48:38.615Z,33.30
2023-02-09T10:51:07.647Z,23.67
2023-02-09T10:53:37.836Z,31.40
2023-02-09T10:56:14.134Z,20.30
2023-02-09T10:58:41.587Z,22.57
2023-02-09T11:01:17.794Z,29.83
2023-02-09T11:04:00.361Z,23.13
2023-02-09T11:06:28.116Z,24.37
2023-02-09T11:09:01.545Z,24.47
2023-02-09T11:11:31.644Z,22.90
2023-02-09T11:13:59.821Z,27.90
2023-02-09T11:16:48.489Z,24.73
2023-02-09T11:19:30.017Z,29.87
2023-02-09T11:22:05.194Z,28.37
2023-02-09T11:24:46.515Z,30.83
2023-02-09T11:27:26.236Z,28.30
2023-02-09T11:30:03.584Z,31.17
2023-02-09T11:32:39.329Z,25.60
2023-02-09T11:35:12.349Z,29.97
2023-02-09T11:37:51.501Z,21.80
2023-02-09T11:40:37.537Z,29.50
2023-02-09T11:43:16.985Z,31.30
2023-02-09T11:45:47.472Z,26.53
2023-02-09T11:48:23.156Z,29.13
2023-02-09T11:51:00.576Z,23.73
2023-02-09T11:53:34.714Z,18.67
2023-02-09T11:56:04.909Z,28.40
2023-02-09T11:58:42.517Z,22.50
2023-02-09T12:01:18.848Z,19.20
2023-02-09T12:03:56.581Z,22.67
2023-02-09T12:06:25.311Z,17.77
2023-02-09T12:09:03.026Z,20.80
2023-02-09T12:11:42.749Z,29.43
2023-02-09T12:14:20.307Z,24.00
2023-02-09T12:16:54.731Z,24.47
2023-02-09T12:19:30.673Z,25.83
2023-02-09T12:22:18.727Z,18.20
2023-02-09T12:25:13.649Z,14.23
2023-02-09T12:27:42.860Z,23.83
2023-02-09T12:30:43.429Z,15.77
2023-02-09T12:33:18.959Z,19.83
2023-02-09T12:36:00.156Z,13.83
2023-02-09T12:38:49.336Z,16.07
2023-02-09T12:41:19.073Z,23.87
2023-02-09T12:43:47.237Z,17.83
2023-02-09T12:46:26.102Z,24.60
2023-02-09T12:49:20.028Z,16.23
2023-02-09T12:52:11.969Z,25.37
2023-02-09T12:54:42.360Z,20.07
2023-02-09T12:57:52.895Z,19.37
2023-02-09T13:00:40.585Z,19.00
2023-02-09T13:03:18.783Z,16.73
2023-02-09T13:05:47.450Z,15.80
2023-02-09T13:08:34.410Z,17.17
2023-02-09T13:11:06.695Z,13.20
2023-02-09T13:13:41.872Z,18.90
2023-02-09T13:16:44.905Z,16.63
2023-02-09T13:19:46.958Z,22.37
2023-02-09T13:22:29.751Z,15.07
2023-02-09T13:25:00.526Z,36.77
2023-02-09T13:27:29.321Z,17.10
2023-02-09T13:29:58.769Z,17.00
2023-02-09T13:32:43.221Z,16.93
2023-02-09T13:35:16.376Z,20.30
2023-02-09T13:37:47.286Z,19.37
2023-02-09T13:40:17.888Z,14.90
2023-02-09T13:42:54.880Z,12.07
2023-02-09T13:45:23.950Z,17.07
2023-02-09T13:47:51.503Z,19.33
2023-02-09T13:50:21.368Z,16.80
2023-02-09T13:52:50.086Z,19.17
2023-02-09T13:55:20.053Z,29.17
2023-02-09T13:57:58.434Z,23.33
2023-02-09T14:00:28.413Z,26.13
2023-02-09T14:02:58.710Z,22.73
2023-02-09T14:05:34.328Z,24.13
2023-02-09T14:08:02.142Z,18.10
2023-02-09T14:10:30.829Z,14.43
2023-02-09T14:13:03.160Z,16.03
2023-02-09T14:15:53.355Z,30.77
2023-02-09T14:18:33.184Z,14.03
2023-02-09T14:21:02.495Z,19.03
2023-02-09T14:23:32.292Z,33.43
2023-02-09T14:26:07.164Z,40.83
2023-02-09T14:28:36.761Z,24.53
2023-02-09T14:31:05.406Z,17.03
2023-02-09T14:33:38.120Z,15.93
2023-02-09T14:36:06.898Z,21.90
2023-02-09T14:38:41.741Z,16.03
2023-02-09T14:41:28.499Z,25.33
2023-02-09T14:44:01.348Z,16.17
2023-02-09T14:46:45.280Z,18.70
2023-02-09T14:49:12.669Z,22.13
2023-02-09T14:51:40.033Z,15.90
2023-02-09T14:54:24.070Z,19.93
2023-02-09T14:56:52.848Z,20.40
2023-02-09T14:59:21.756Z,19.80
2023-02-09T15:01:51.161Z,20.20
2023-02-09T15:04:18.699Z,20.13
2023-02-09T15:06:47.863Z,21.87
2023-02-09T15:09:21.873Z,27.10
2023-02-09T15:12:04.171Z,25.23
2023-02-09T15:14:36.485Z,20.47
2023-02-09T15:17:14.774Z,20.13
2023-02-09T15:19:42.439Z,22.67
2023-02-09T15:22:12.876Z,28.83
2023-02-09T15:24:41.061Z,18.57
2023-02-09T15:27:17.114Z,28.93
2023-02-09T15:29:45.679Z,31.47
2023-02-09T15:32:14.846Z,22.90
2023-02-09T15:34:42.690Z,25.57
2023-02-09T15:37:20.243Z,23.63
2023-02-09T15:39:48.580Z,30.00
2023-02-09T15:42:35.679Z,61.13
2023-02-09T15:45:35.604Z,31.03
2023-02-09T15:48:03.845Z,31.43
2023-02-09T15:50:33.398Z,34.27
2023-02-09T15:53:02.768Z,26.67
2023-02-09T15:55:30.743Z,27.73
2023-02-09T15:57:58.320Z,28.80
2023-02-09T16:00:28.390Z,23.93
2023-02-09T16:02:57.927Z,29.57
2023-02-09T16:05:27.870Z,32.93
2023-02-09T16:07:55.884Z,23.87
2023-02-09T16:10:24.682Z,31.00
2023-02-09T16:12:52.618Z,39.57
2023-02-09T16:15:23.401Z,40.10
2023-02-09T16:17:51.608Z,31.67
2023-02-09T16:20:20.010Z,36.00
2023-02-09T16:22:49.265Z,30.63
2023-02-09T16:25:18.792Z,37.37
2023-02-09T16:27:46.138Z,35.33
2023-02-09T16:30:18.603Z,35.67
2023-02-09T16:32:46.385Z,32.33
2023-02-09T16:35:17.194Z,31.13
2023-02-09T16:37:46.602Z,45.53
2023-02-09T16:40:32.511Z,39.00
2023-02-09T16:43:01.127Z,53.77
2023-02-09T16:45:30.510Z,50.33
2023-02-09T16:47:59.560Z,33.10
2023-02-09T16:50:32.697Z,35.67
2023-02-09T16:53:02.128Z,38.63
2023-02-09T16:55:31.643Z,38.83
2023-02-09T16:58:00.978Z,33.50
2023-02-09T17:00:30.340Z,32.13
2023-02-09T17:03:00.052Z,35.67
2023-02-09T17:05:31.277Z,37.30
2023-02-09T17:08:01.561Z,72.80
2023-02-09T17:10:31.312Z,95.03
2023-02-09T17:13:00.948Z,54.60
2023-02-09T17:15:31.727Z,43.17
2023-02-09T17:18:02.948Z,35.13
2023-02-09T17:20:35.974Z,50.87
2023-02-09T17:23:03.451Z,38.80
2023-02-09T17:25:30.859Z,43.93
2023-02-09T17:27:58.226Z,65.27
2023-02-09T17:30:25.551Z,53.83
2023-02-09T17:32:58.807Z,48.90
2023-02-09T17:35:53.103Z,61.63
2023-02-09T17:38:21.893Z,46.50
2023-02-09T17:40:49.340Z,44.07
2023-02-09T17:43:16.755Z,36.63
2023-02-09T17:45:48.279Z,49.83
2023-02-09T17:48:16.547Z,49.10
2023-02-09T17:50:45.628Z,41.07
2023-02-09T17:53:19.232Z,41.90
2023-02-09T17:55:47.460Z,52.77
2023-02-09T17:58:15.818Z,64.70
2023-02-09T18:00:44.358Z,47.17
2023-02-09T18:03:14.270Z,46.20
2023-02-09T18:05:41.935Z,47.47
2023-02-09T18:08:09.581Z,53.40
2023-02-09T18:10:38.070Z,48.43
2023-02-09T18:13:05.355Z,47.17
2023-02-09T18:15:35.518Z,37.93
2023-02-09T18:18:03.499Z,49.60
2023-02-09T18:20:32.823Z,44.97
2023-02-09T18:23:01.616Z,35.60
2023-02-09T18:25:31.044Z,37.77
2023-02-09T18:27:59.189Z,38.07
2023-02-09T18:30:29.130Z,40.27
2023-02-09T18:32:57.164Z,48.43
2023-02-09T18:35:26.792Z,41.83
2023-02-09T18:37:54.150Z,49.53
2023-02-09T18:40:21.613Z,57.87
2023-02-09T18:42:49.298Z,38.27
2023-02-09T18:45:19.235Z,63.40
2023-02-09T18:47:47.436Z,50.90
2023-02-09T18:50:17.935Z,54.13
2023-02-09T18:52:46.939Z,47.27
2023-02-09T18:55:14.833Z,46.40
2023-02-09T18:57:42.199Z,61.03
2023-02-09T19:00:12.073Z,48.93
2023-02-09T19:02:40.511Z,50.07
2023-02-09T19:05:08.603Z,61.47
2023-02-09T19:07:36.423Z,42.10
2023-02-09T19:10:04.462Z,51.40
2023-02-09T19:12:31.807Z,47.07
2023-02-09T19:14:59.330Z,45.63
2023-02-09T19:17:26.864Z,55.63
2023-02-09T19:19:57.605Z,49.80
2023-02-09T19:22:25.261Z,51.10
2023-02-09T19:24:55.476Z,47.50
2023-02-09T19:27:23.634Z,41.40
2023-02-09T19:29:54.115Z,49.60
2023-02-09T19:32:21.718Z,43.30
2023-02-09T19:34:49.604Z,45.10
2023-02-09T19:37:20.027Z,49.63
2023-02-09T19:39:52.285Z,47.70
2023-02-09T19:42:20.409Z,51.87
2023-02-09T19:44:48.353Z,46.27
2023-02-09T19:47:15.991Z,54.50
2023-02-09T19:49:44.688Z,44.70
2023-02-09T19:52:11.916Z,45.53
2023-02-09T19:54:39.797Z,40.93
2023-02-09T19:57:07.083Z,60.80
2023-02-09T19:59:37.357Z,39.20
2023-02-09T20:02:05.026Z,57.90
2023-02-09T20:04:34.041Z,46.27
2023-02-09T20:07:02.959Z,47.53
2023-02-09T20:09:30.158Z,54.03
2023-02-09T20:11:58.066Z,43.37
2023-02-09T20:14:25.354Z,45.63
2023-02-09T20:16:53.466Z,43.07
2023-02-09T20:19:20.945Z,56.40
2023-02-09T20:21:48.331Z,54.60
2023-02-09T20:24:15.670Z,60.53
2023-02-09T20:26:45.178Z,70.10
2023-02-09T20:29:15.637Z,68.17
2023-02-09T20:31:43.225Z,46.63
2023-02-09T20:34:12.601Z,51.77
2023-02-09T20:36:41.172Z,49.90
2023-02-09T20:39:12.584Z,50.77
2023-02-09T20:42:39.202Z,100.10
2023-02-09T20:45:50.366Z,39.33
2023-02-09T20:51:27.107Z,39.23
2023-02-09T20:53:54.376Z,41.53
2023-02-09T21:00:24.093Z,37.57
2023-02-09T21:02:57.533Z,40.07
2023-02-09T21:05:45.574Z,39.60
2023-02-09T21:11:29.853Z,30.20
2023-02-09T21:14:00.890Z,35.30
2023-02-09T21:23:56.641Z,46.00
2023-02-09T21:26:48.012Z,35.30
2023-02-09T21:29:28.375Z,33.30
2023-02-09T21:36:33.727Z,28.07
2023-02-09T21:40:15.997Z,35.63
2023-02-09T21:43:14.046Z,33.87
2023-02-09T21:45:41.628Z,28.70
2023-02-09T21:48:08.894Z,34.10
2023-02-09T21:50:36.172Z,32.03
2023-02-09T21:53:06.311Z,32.57
2023-02-09T21:55:55.358Z,28.53
2023-02-09T21:58:58.057Z,35.80
2023-02-09T22:02:10.524Z,32.90
2023-02-09T22:04:47.794Z,36.63
2023-02-09T22:09:04.093Z,36.03
2023-02-09T22:11:20.305Z,31.30
2023-02-09T22:13:54.991Z,32.73
2023-02-09T22:16:26.213Z,24.67
2023-02-09T22:20:02.341Z,28.27
2023-02-09T22:22:03.869Z,30.13
2023-02-09T22:24:50.371Z,27.10
2023-02-09T22:27:23.422Z,31.53
2023-02-09T22:29:50.750Z,30.70
2023-02-09T22:32:19.764Z,25.10
2023-02-09T22:34:47.010Z,27.70
2023-02-09T22:37:14.269Z,30.30
2023-02-09T22:39:41.514Z,23.77
2023-02-09T22:42:08.774Z,27.53
2023-02-09T22:44:36.047Z,26.53
2023-02-09T22:47:03.446Z,29.87
2023-02-09T22:49:31.545Z,23.53
2023-02-09T22:51:58.819Z,30.93
2023-02-09T22:54:26.079Z,23.83
2023-02-09T22:56:53.345Z,30.60
2023-02-09T22:59:20.812Z,35.77
2023-02-09T23:01:48.288Z,22.80
2023-02-09T23:04:15.605Z,28.67
2023-02-09T23:06:43.667Z,23.37
2023-02-09T23:09:12.309Z,25.10
2023-02-09T23:11:39.639Z,28.67
2023-02-09T23:14:11.167Z,30.87
2023-02-09T23:16:40.216Z,29.77
2023-02-09T23:19:12.110Z,29.90
2023-02-09T23:21:41.188Z,23.63
2023-02-09T23:24:10.277Z,24.67
2023-02-09T23:26:38.411Z,27.17
2023-02-09T23:29:07.421Z,30.73
2023-02-09T23:31:34.834Z,26.53
2023-02-09T23:34:02.322Z,30.53
2023-02-09T23:36:31.523Z,38.53
2023-02-09T23:39:00.448Z,19.10
2023-02-09T23:41:29.082Z,19.50
2023-02-09T23:43:57.288Z,28.23
2023-02-09T23:46:28.413Z,24.90
2023-02-09T23:48:56.522Z,19.43
2023-02-09T23:51:25.933Z,21.13
2023-02-09T23:53:54.832Z,21.60
2023-02-09T23:56:22.578Z,22.43
2023-02-09T23:58:52.276Z,30.80
